Webbwood, Canada
Current Conditions -  °F | °C
As of 1:35 AM on Friday 31 Oct 2014 (Local Time) from CYZE Reporting Station
Light Rain Light Rain  
Wind Chill: 38°   Ceiling: 2300
Heat Index: 41°   Visibility: 9mi
Dew Point: 39°   Wind: 5mph
Humidity: 93%   Direction: 120°ESE
Pressure: 29.88"   Gusts: NA
Location:  46.27°N, 81.88°W
Report Text: CYZE 310535Z AUTO 12004KT 9SM -RA BKN023 BKN028 OVC039 05/04 A2988 RMK PCPN 0.5MM PAST HR SLP126
Loading
Personal Weather Stations






























Interactive Weather Map
Tropical Storm Tracking
New forecast layout! Learn more

10-Day Weather Forecast

Advertisements
Track Severe Weather on mobile